Time;durP1;ratioP1;P1;durP2;ratioP2;P2;SDS_P1;SDS_P2;PMS_P1;PMS_P2;Temp;Humidity;BMP_temperature;BMP_pressure;BME280_temperature;BME280_humidity;BME280_pressure;Samples;Min_cycle;Max_cycle;Signal;HPM_P1;HPM_P2
2023/06/26 00:00:12;;;;;;;25.98;16.58;;;;;;;21.79;100.00;100149.56;5067257;28;20036;-86
2023/06/26 00:02:38;;;;;;;26.98;19.38;;;;;;;21.76;100.00;100140.91;5040252;28;20476;-83
2023/06/26 00:05:04;;;;;;;31.75;18.05;;;;;;;21.78;100.00;100155.22;5040837;28;20032;-85
2023/06/26 00:07:30;;;;;;;23.83;19.02;;;;;;;21.81;100.00;100154.81;5034707;28;20405;-85
2023/06/26 00:09:57;;;;;;;24.55;17.92;;;;;;;21.85;100.00;100145.13;5039464;28;20109;-83
2023/06/26 00:12:22;;;;;;;28.38;19.55;;;;;;;21.84;100.00;100155.25;5070761;28;20065;-84
2023/06/26 00:14:47;;;;;;;35.63;18.65;;;;;;;21.74;100.00;100143.88;5030904;28;20056;-85
2023/06/26 00:17:13;;;;;;;22.45;18.30;;;;;;;21.78;100.00;100155.22;5029858;28;20033;-85
2023/06/26 00:19:38;;;;;;;25.40;18.55;;;;;;;21.78;100.00;100152.50;5029732;28;20025;-84
2023/06/26 00:22:04;;;;;;;30.45;18.10;;;;;;;21.73;100.00;100149.53;5030057;28;20075;-85
2023/06/26 00:24:29;;;;;;;25.80;18.40;;;;;;;21.77;100.00;100159.88;5029724;28;20033;-84
2023/06/26 00:26:55;;;;;;;24.05;16.80;;;;;;;21.69;100.00;100158.19;5029242;28;20022;-84
2023/06/26 00:29:20;;;;;;;24.55;18.88;;;;;;;21.74;100.00;100165.78;5061956;28;20033;-86
2023/06/26 00:31:46;;;;;;;31.48;19.20;;;;;;;21.75;100.00;100158.38;5029625;28;20028;-85
2023/06/26 00:34:11;;;;;;;35.50;20.70;;;;;;;21.76;100.00;100155.44;5029806;28;20036;-85
2023/06/26 00:36:36;;;;;;;45.67;20.63;;;;;;;21.78;100.00;100155.22;5029519;28;20040;-85
2023/06/26 00:39:03;;;;;;;29.88;20.27;;;;;;;21.77;100.00;100159.03;5032499;28;20080;-85
2023/06/26 00:41:29;;;;;;;32.53;19.75;;;;;;;21.78;100.00;100153.34;5031883;28;20021;-86
2023/06/26 00:43:54;;;;;;;31.52;18.80;;;;;;;21.80;100.00;100155.88;5030730;28;20096;-87
2023/06/26 00:46:20;;;;;;;42.80;20.15;;;;;;;21.85;100.00;100147.88;5031274;28;20018;-87
2023/06/26 00:48:48;;;;;;;31.70;20.23;;;;;;;21.77;100.00;100143.47;5032233;28;20470;-90
2023/06/26 00:51:13;;;;;;;23.75;18.48;;;;;;;21.86;100.00;100141.34;5030200;28;20037;-88
2023/06/26 00:53:39;;;;;;;24.67;18.77;;;;;;;21.82;100.00;100137.34;5032602;28;20038;-87
2023/06/26 00:56:05;;;;;;;36.80;20.25;;;;;;;21.79;100.00;100124.06;5032294;28;20053;-87
2023/06/26 00:58:31;;;;;;;30.90;18.38;;;;;;;21.84;100.00;100135.22;5050060;28;20068;-89
2023/06/26 01:00:57;;;;;;;32.33;18.70;;;;;;;21.89;100.00;100136.34;5045699;28;20089;-89
2023/06/26 01:03:24;;;;;;;35.63;18.27;;;;;;;21.89;100.00;100139.09;5033336;28;20021;-86
2023/06/26 01:05:58;;;;;;;29.02;18.33;;;;;;;21.88;100.00;100150.19;5034062;28;20036;-87
2023/06/26 01:08:24;;;;;;;29.85;16.98;;;;;;;21.86;100.00;100141.34;5065412;28;20029;-87
2023/06/26 01:10:50;;;;;;;35.53;16.25;;;;;;;21.77;100.00;100123.44;5051274;28;20128;-89
2023/06/26 01:13:17;;;;;;;28.60;15.68;;;;;;;21.78;100.00;100125.97;5058317;28;20029;-90
2023/06/26 01:15:46;;;;;;;32.92;14.98;;;;;;;21.84;100.00;100127.00;5059151;28;20036;-88
2023/06/26 01:18:12;;;;;;;50.40;18.60;;;;;;;21.84;100.00;100129.75;5058355;28;20098;-88
2023/06/26 01:20:42;;;;;;;29.55;14.55;;;;;;;21.83;100.00;100117.97;5059947;28;20010;-91
2023/06/26 01:23:18;;;;;;;28.35;14.48;;;;;;;21.98;100.00;100134.25;5058403;28;20033;-88
2023/06/26 01:26:08;;;;;;;20.85;14.65;;;;;;;22.02;100.00;100140.94;5039884;28;20021;-87
2023/06/26 01:28:41;;;;;;;22.17;15.45;;;;;;;22.00;100.00;100137.59;5040173;28;20036;-87
2023/06/26 01:31:07;;;;;;;23.48;13.48;;;;;;;21.97;100.00;100121.59;5034133;28;20029;-88
2023/06/26 01:33:32;;;;;;;32.97;13.60;;;;;;;22.00;100.00;100140.34;5032867;28;20026;-89
2023/06/26 01:35:58;;;;;;;25.30;13.73;;;;;;;22.02;100.00;100130.84;5034375;28;20041;-88
2023/06/26 01:38:24;;;;;;;31.50;13.35;;;;;;;22.05;100.00;100135.06;5034557;28;20702;-88
2023/06/26 01:40:50;;;;;;;29.80;14.45;;;;;;;21.92;100.00;100102.22;5034209;28;20029;-89
2023/06/26 01:43:31;;;;;;;37.40;14.45;;;;;;;22.06;100.00;100139.50;5033246;28;20028;-88
2023/06/26 01:46:02;;;;;;;31.15;13.43;;;;;;;21.93;100.00;100112.09;5034388;28;20041;-88
2023/06/26 01:48:35;;;;;;;31.93;14.23;;;;;;;21.88;100.00;100136.50;5036243;28;20029;-90
2023/06/26 01:51:01;;;;;;;33.40;13.90;;;;;;;21.88;100.00;100125.56;5037627;28;20029;-88
2023/06/26 01:53:34;;;;;;;47.03;14.35;;;;;;;21.93;100.00;100131.25;5045765;28;20033;-91
2023/06/26 01:56:07;;;;;;;26.80;15.43;;;;;;;21.97;100.00;100140.75;5056561;28;20021;-89
2023/06/26 01:58:35;;;;;;;46.65;16.60;;;;;;;21.92;100.00;100130.44;5052844;28;20095;-89
2023/06/26 02:01:00;;;;;;;27.70;15.20;;;;;;;21.90;100.00;100131.69;5034067;28;20060;-87
2023/06/26 02:03:26;;;;;;;40.67;15.40;;;;;;;21.91;100.00;100133.38;5010958;28;20069;-88
2023/06/26 02:05:51;;;;;;;35.63;16.10;;;;;;;21.85;100.00;100126.81;4993867;28;20048;-87
2023/06/26 02:08:17;;;;;;;27.15;15.93;;;;;;;21.92;100.00;100126.88;5010665;28;20041;-87
2023/06/26 02:10:42;;;;;;;31.48;16.20;;;;;;;21.99;100.00;100135.91;5010558;28;20664;-89
2023/06/26 02:13:08;;;;;;;21.13;16.48;;;;;;;21.88;100.00;100117.34;4994148;28;20587;-88
2023/06/26 02:15:33;;;;;;;21.65;15.00;;;;;;;21.85;100.00;100115.03;5010373;28;20041;-89
2023/06/26 02:17:59;;;;;;;27.13;16.50;;;;;;;21.91;100.00;100127.91;5010252;28;20034;-88
2023/06/26 02:20:24;;;;;;;38.67;17.60;;;;;;;21.93;100.00;100132.13;5010095;28;20093;-88
2023/06/26 02:22:50;;;;;;;38.08;17.55;;;;;;;21.86;100.00;100103.88;5010445;28;20034;-87
2023/06/26 02:25:16;;;;;;;32.85;16.58;;;;;;;21.96;100.00;100120.72;5010711;28;20061;-89
2023/06/26 02:27:42;;;;;;;32.00;16.38;;;;;;;21.88;100.00;100101.78;4994011;28;20029;-88
2023/06/26 02:30:08;;;;;;;61.58;19.92;;;;;;;21.87;100.00;100104.69;5017507;28;20057;-88
2023/06/26 02:32:34;;;;;;;28.27;17.35;;;;;;;21.87;100.00;100107.44;4971474;28;20044;-88
2023/06/26 02:34:59;;;;;;;35.58;17.92;;;;;;;21.89;100.00;100091.69;5000006;28;20038;-88
2023/06/26 02:37:25;;;;;;;30.15;18.63;;;;;;;21.93;100.00;100095.66;5010278;28;20120;-88
2023/06/26 02:39:50;;;;;;;36.33;19.70;;;;;;;22.09;100.00;100117.16;5011413;28;20552;-88
2023/06/26 02:42:16;;;;;;;55.75;20.08;;;;;;;22.04;100.00;100111.47;5015046;28;20034;-88
2023/06/26 02:44:41;;;;;;;45.38;19.50;;;;;;;22.14;100.00;100118.19;5012148;28;20042;-88
2023/06/26 02:47:07;;;;;;;39.47;19.40;;;;;;;21.97;100.00;100100.53;4997677;28;20517;-89
2023/06/26 02:49:32;;;;;;;32.35;20.10;;;;;;;22.10;100.00;100110.63;5013234;28;20030;-89
2023/06/26 02:51:58;;;;;;;28.75;18.80;;;;;;;22.13;100.00;100108.31;5033091;28;20017;-87
2023/06/26 02:54:23;;;;;;;29.58;19.48;;;;;;;22.19;100.00;100115.69;5035003;28;20033;-89
2023/06/26 02:56:48;;;;;;;36.17;19.73;;;;;;;22.08;100.00;100099.88;5015453;28;20049;-87
2023/06/26 02:59:14;;;;;;;41.60;19.60;;;;;;;22.16;100.00;100109.78;5015272;28;20022;-95
2023/06/26 03:14:26;;;;;;;42.40;19.30;;;;;;;22.36;100.00;100110.59;5048129;28;20053;-96
2023/06/26 03:40:10;;;;;;;34.85;18.05;;;;;;;22.65;100.00;100115.63;5945857;23;20035;-96
2023/06/26 03:42:39;;;;;;;32.83;18.27;;;;;;;22.41;100.00;100077.06;5173054;23;20027;-96
2023/06/26 03:45:06;;;;;;;30.25;18.45;;;;;;;22.71;100.00;100120.25;5051916;23;20938;-96
2023/06/26 03:50:06;;;;;;;76.20;20.92;;;;;;;22.74;100.00;100100.63;4994455;28;20069;-90
2023/06/26 03:52:31;;;;;;;35.33;17.45;;;;;;;22.97;100.00;100127.53;4987716;28;20058;-85
2023/06/26 03:54:57;;;;;;;32.53;16.35;;;;;;;23.06;100.00;100128.09;4976693;28;20471;-85
2023/06/26 03:57:23;;;;;;;31.50;16.65;;;;;;;23.12;99.34;100121.75;4973822;28;20391;-86
2023/06/26 03:59:49;;;;;;;31.48;15.57;;;;;;;23.14;99.15;100128.72;4976892;28;20125;-87
2023/06/26 04:02:14;;;;;;;39.30;16.25;;;;;;;23.12;99.08;100110.78;4959512;28;20030;-86
2023/06/26 04:04:40;;;;;;;37.38;20.48;;;;;;;23.16;98.65;100120.25;4972891;28;20023;-85
2023/06/26 04:07:05;;;;;;;65.47;20.13;;;;;;;23.19;98.20;100122.56;4970999;28;20475;-81
2023/06/26 04:09:31;;;;;;;69.05;19.25;;;;;;;23.20;97.79;100118.78;4970721;28;20022;-83
2023/06/26 04:11:56;;;;;;;32.22;16.48;;;;;;;23.15;97.01;100111.19;4970546;28;20026;-85
2023/06/26 04:14:22;;;;;;;36.45;16.38;;;;;;;23.26;97.50;100117.91;4971733;28;20077;-87
2023/06/26 04:16:47;;;;;;;39.70;17.05;;;;;;;23.22;97.41;100117.50;4972092;28;20057;-88
2023/06/26 04:19:13;;;;;;;36.92;17.98;;;;;;;23.24;96.59;100109.03;4971797;28;20054;-88
2023/06/26 04:21:38;;;;;;;39.25;17.08;;;;;;;23.27;96.77;100116.84;4973661;28;20471;-89
2023/06/26 04:24:07;;;;;;;24.35;16.55;;;;;;;23.31;96.36;100115.31;4954171;28;20112;-89
2023/06/26 04:26:33;;;;;;;39.00;17.52;;;;;;;23.39;96.53;100111.50;4972648;28;20113;-86
2023/06/26 04:28:59;;;;;;;46.10;19.73;;;;;;;23.48;96.74;100119.28;4954143;28;20169;-85
2023/06/26 04:31:25;;;;;;;48.05;16.40;;;;;;;23.49;96.43;100117.34;4972790;28;20042;-93
2023/06/26 04:33:50;;;;;;;25.95;16.83;;;;;;;23.44;95.64;100104.31;4954426;28;20665;-90
2023/06/26 04:36:17;;;;;;;43.05;18.48;;;;;;;23.47;95.00;100114.84;4955476;28;20034;-88
2023/06/26 04:38:43;;;;;;;61.30;18.10;;;;;;;23.42;94.75;100111.09;4973429;28;20223;-91
2023/06/26 04:41:09;;;;;;;38.38;17.02;;;;;;;23.46;94.32;100113.16;4961756;28;20463;-89
2023/06/26 04:43:34;;;;;;;66.68;19.95;;;;;;;23.39;93.22;100103.25;4979863;28;20109;-92
2023/06/26 04:46:01;;;;;;;93.40;22.15;;;;;;;23.49;93.67;100112.72;4998321;28;20030;-94
2023/06/26 04:48:27;;;;;;;43.42;17.52;;;;;;;23.55;93.58;100117.31;4998505;28;20047;-94
2023/06/26 04:50:54;;;;;;;135.10;25.48;;;;;;;23.52;92.35;100101.28;4976707;28;20037;-84
2023/06/26 04:53:25;;;;;;;101.82;22.58;;;;;;;23.64;92.29;100120.63;4975404;28;20037;-85
2023/06/26 04:55:52;;;;;;;65.25;18.42;;;;;;;23.69;92.38;100116.19;4975638;28;20495;-86
2023/06/26 04:58:18;;;;;;;42.38;17.98;;;;;;;23.73;91.72;100120.16;4975539;28;20027;-83
2023/06/26 05:00:43;;;;;;;50.80;17.52;;;;;;;23.80;91.53;100126.44;4976033;28;20097;-86
2023/06/26 05:03:11;;;;;;;48.10;19.35;;;;;;;23.84;91.38;100122.19;4974856;28;20030;-87
2023/06/26 05:05:36;;;;;;;71.82;18.02;;;;;;;23.96;90.79;100129.72;4975037;28;20467;-86
2023/06/26 05:08:23;;;;;;;31.13;14.90;;;;;;;23.88;88.40;100121.75;4974463;28;20090;-85
2023/06/26 05:10:49;;;;;;;67.57;16.83;;;;;;;23.96;87.95;100137.94;4976573;28;20027;-85
2023/06/26 05:13:20;;;;;;;74.47;17.27;;;;;;;23.80;87.50;100114.63;4974849;28;20062;-86
2023/06/26 05:15:46;;;;;;;33.77;11.60;;;;;;;23.91;88.14;100130.38;4974220;28;20118;-85
2023/06/26 05:18:12;;;;;;;33.55;11.75;;;;;;;24.00;88.18;100136.44;4974343;28;20406;-83
2023/06/26 05:20:38;;;;;;;29.08;10.27;;;;;;;23.97;87.22;100125.91;4973805;28;20086;-83
2023/06/26 05:23:04;;;;;;;20.90;7.95;;;;;;;24.06;87.02;100136.41;4974493;28;20803;-85
2023/06/26 05:25:31;;;;;;;49.58;11.20;;;;;;;24.13;86.79;100134.44;4977268;28;20019;-84
2023/06/26 05:27:58;;;;;;;23.55;7.82;;;;;;;24.15;84.14;100134.22;4973941;28;20073;-82
2023/06/26 05:30:27;;;;;;;26.95;7.22;;;;;;;23.99;84.56;100130.09;4976448;28;20035;-82
2023/06/26 05:32:54;;;;;;;11.38;6.70;;;;;;;23.96;85.78;100126.97;4982242;28;20027;-83
2023/06/26 05:35:22;;;;;;;62.22;10.82;;;;;;;24.04;85.47;100127.50;4975929;28;20454;-84
2023/06/26 05:37:50;;;;;;;49.92;8.93;;;;;;;24.08;85.05;100139.75;4976293;28;20035;-81
2023/06/26 05:40:17;;;;;;;46.75;8.77;;;;;;;24.03;84.31;100146.97;4987115;28;20022;-90
2023/06/26 05:42:43;;;;;;;55.40;9.48;;;;;;;24.13;85.02;100159.16;4995236;28;20038;-82
2023/06/26 05:45:09;;;;;;;21.02;8.07;;;;;;;24.02;84.54;100132.41;4996812;28;20077;-86
2023/06/26 05:47:35;;;;;;;189.82;25.48;;;;;;;24.21;83.74;100155.31;4975685;28;20154;-81
2023/06/26 05:50:01;;;;;;;48.17;9.30;;;;;;;24.29;84.30;100153.13;4973707;28;20495;-81
2023/06/26 05:52:27;;;;;;;70.05;9.70;;;;;;;24.42;84.57;100152.16;4989110;28;20019;-82
2023/06/26 05:54:52;;;;;;;75.68;12.95;;;;;;;24.43;83.29;100148.34;4996259;28;20059;-82
2023/06/26 05:57:19;;;;;;;17.83;9.40;;;;;;;24.54;83.71;100158.59;4987473;28;20062;-80
2023/06/26 05:59:45;;;;;;;17.90;9.27;;;;;;;24.57;83.62;100154.53;4976027;28;20026;-77
2023/06/26 06:02:11;;;;;;;56.30;10.52;;;;;;;24.51;82.71;100156.31;4977518;28;20114;-78
2023/06/26 06:04:37;;;;;;;161.90;21.00;;;;;;;24.59;82.82;100169.75;4931600;28;20119;-81
2023/06/26 06:07:03;;;;;;;29.42;10.73;;;;;;;24.75;82.99;100168.31;4984320;28;20858;-80
2023/06/26 06:09:28;;;;;;;17.73;10.23;;;;;;;24.77;81.93;100169.75;4974289;28;20031;-82
2023/06/26 06:11:54;;;;;;;26.63;10.02;;;;;;;24.75;81.49;100168.31;4973481;28;20558;-81
2023/06/26 06:14:19;;;;;;;22.10;10.15;;;;;;;24.74;81.44;100164.72;4972924;28;20107;-85
2023/06/26 06:16:45;;;;;;;63.50;13.93;;;;;;;24.77;80.80;100178.00;4972086;28;20029;-80
2023/06/26 06:19:13;;;;;;;121.90;17.13;;;;;;;24.78;81.44;100173.34;4972993;28;20038;-89
2023/06/26 06:21:39;;;;;;;23.95;10.90;;;;;;;24.75;80.59;100163.66;4977081;28;20034;-86
2023/06/26 06:24:04;;;;;;;29.95;11.20;;;;;;;24.85;79.89;100182.44;4972548;28;20133;-82
2023/06/26 06:26:30;;;;;;;64.20;12.95;;;;;;;24.82;79.79;100169.97;4972048;28;20034;-82
2023/06/26 06:28:55;;;;;;;34.85;12.05;;;;;;;24.90;79.34;100174.31;4972564;28;21257;-82
2023/06/26 06:31:21;;;;;;;21.10;11.95;;;;;;;24.82;79.59;100158.13;4972660;28;20437;-82
2023/06/26 06:33:46;;;;;;;35.00;12.05;;;;;;;24.81;78.90;100157.28;4975341;28;20091;-87
2023/06/26 06:36:12;;;;;;;36.85;13.50;;;;;;;24.88;78.74;100166.31;4972742;28;20093;-82
2023/06/26 06:38:37;;;;;;;19.70;12.00;;;;;;;24.85;79.55;100169.50;4984554;28;20031;-84
2023/06/26 06:41:02;;;;;;;25.05;12.23;;;;;;;24.84;78.62;100169.72;4992779;28;20042;-83
2023/06/26 06:43:28;;;;;;;28.52;12.75;;;;;;;24.77;78.13;100172.50;4958885;28;20501;-84
2023/06/26 06:45:53;;;;;;;186.43;27.50;;;;;;;24.72;76.80;100155.88;4975879;28;20035;-86
2023/06/26 06:48:19;;;;;;;44.75;15.00;;;;;;;24.86;76.51;100173.94;4979786;28;20055;-85
2023/06/26 06:50:44;;;;;;;44.53;14.00;;;;;;;24.87;75.89;100167.38;4983837;28;20023;-85
2023/06/26 06:53:10;;;;;;;29.23;14.32;;;;;;;25.00;77.30;100171.03;4979990;28;20057;-84
2023/06/26 06:55:35;;;;;;;35.03;13.88;;;;;;;24.96;76.14;100169.81;4977639;28;20027;-85
2023/06/26 06:58:00;;;;;;;40.55;14.70;;;;;;;25.07;75.15;100188.31;4974524;28;20498;-84
2023/06/26 07:00:26;;;;;;;36.63;15.98;;;;;;;24.99;75.04;100172.94;4970833;28;20033;-85
2023/06/26 07:02:52;;;;;;;28.23;13.10;;;;;;;25.07;73.79;100188.31;4971080;28;20042;-85
2023/06/26 07:05:19;;;;;;;25.10;12.88;;;;;;;25.01;73.56;100172.72;4973757;28;20027;-87
2023/06/26 07:07:44;;;;;;;46.70;14.88;;;;;;;25.06;73.14;100181.13;4973981;28;20037;-89
2023/06/26 07:10:12;;;;;;;27.45;13.07;;;;;;;25.16;72.62;100186.94;4955521;28;20026;-85
2023/06/26 07:12:38;;;;;;;57.95;21.88;;;;;;;25.10;72.61;100166.69;4971119;28;20113;-84
2023/06/26 07:15:05;;;;;;;33.15;15.18;;;;;;;25.04;73.51;100172.25;4971699;28;20762;-87
2023/06/26 07:17:32;;;;;;;39.33;16.20;;;;;;;24.97;73.40;100171.50;4974433;28;20407;-84
2023/06/26 07:19:59;;;;;;;35.67;17.02;;;;;;;25.02;74.15;100188.16;4973443;28;20030;-84
2023/06/26 07:22:24;;;;;;;39.40;16.02;;;;;;;25.00;73.62;100182.03;4970532;28;20377;-81
2023/06/26 07:24:49;;;;;;;30.63;14.23;;;;;;;24.96;73.72;100186.31;4970849;28;20035;-85
2023/06/26 07:27:16;;;;;;;33.05;16.80;;;;;;;25.10;73.85;100185.09;4971049;28;20042;-83
2023/06/26 07:29:42;;;;;;;41.25;13.55;;;;;;;25.18;73.66;100184.78;4973056;28;20042;-81
2023/06/26 07:32:07;;;;;;;69.40;17.38;;;;;;;25.31;73.48;100185.47;4974377;28;20047;-84
2023/06/26 07:34:33;;;;;;;50.70;19.25;;;;;;;25.18;72.83;100174.63;4976586;28;20027;-84
2023/06/26 07:36:59;;;;;;;40.05;14.65;;;;;;;25.19;72.68;100186.47;4973679;28;20050;-84
2023/06/26 07:39:24;;;;;;;48.85;15.27;;;;;;;25.16;72.19;100181.44;4984285;28;20058;-81
2023/06/26 07:41:50;;;;;;;45.08;14.00;;;;;;;25.27;72.95;100183.41;4970867;28;20514;-80
2023/06/26 07:44:15;;;;;;;29.15;13.07;;;;;;;25.40;72.12;100186.84;4969477;28;20384;-83
2023/06/26 07:46:41;;;;;;;237.27;36.28;;;;;;;25.54;72.55;100186.66;4969650;28;20059;-82
2023/06/26 07:49:06;;;;;;;32.70;13.63;;;;;;;25.55;71.67;100175.44;4971534;28;20528;-90
2023/06/26 07:51:32;;;;;;;19.50;11.70;;;;;;;25.65;70.97;100184.00;4937454;28;20038;-86
2023/06/26 07:53:57;;;;;;;24.10;12.85;;;;;;;25.76;70.48;100183.19;4951349;28;20035;-82
2023/06/26 07:56:23;;;;;;;35.25;13.88;;;;;;;25.81;70.12;100180.56;4950653;29;20035;-80
2023/06/26 07:58:48;;;;;;;132.85;26.30;;;;;;;25.97;69.34;100185.41;4950043;29;20046;-81
2023/06/26 08:01:14;;;;;;;43.67;13.68;;;;;;;26.10;68.35;100189.03;4950507;28;20031;-81
2023/06/26 08:03:40;;;;;;;37.83;10.70;;;;;;;26.07;66.43;100186.75;4950218;29;20054;-80
2023/06/26 08:06:06;;;;;;;35.08;12.68;;;;;;;26.02;66.05;100172.84;4950639;29;20069;-84
2023/06/26 08:08:31;;;;;;;25.88;9.55;;;;;;;26.04;65.85;100181.69;4933542;29;20055;-83
2023/06/26 08:10:57;;;;;;;31.45;12.10;;;;;;;26.06;66.69;100176.78;4951312;29;20035;-85
2023/06/26 08:13:22;;;;;;;37.28;11.35;;;;;;;26.12;67.04;100186.84;4958170;29;20070;-84
2023/06/26 08:15:48;;;;;;;27.73;13.13;;;;;;;26.21;67.59;100179.94;4951869;29;20027;-83
2023/06/26 08:18:13;;;;;;;16.88;8.88;;;;;;;26.14;65.50;100174.53;4950138;29;20035;-85
2023/06/26 08:20:39;;;;;;;21.83;9.77;;;;;;;26.32;65.37;100187.41;4934194;29;20043;-81
2023/06/26 08:23:04;;;;;;;30.27;9.77;;;;;;;26.38;65.84;100186.47;4952600;29;20479;-84
2023/06/26 08:25:30;;;;;;;20.13;8.80;;;;;;;26.19;65.55;100162.81;4953552;29;20499;-84
2023/06/26 08:27:55;;;;;;;25.88;9.93;;;;;;;26.28;66.13;100186.22;4955022;29;20467;-89
2023/06/26 08:30:27;;;;;;;21.02;9.77;;;;;;;26.42;65.91;100196.78;4953203;29;20137;-80
2023/06/26 08:32:53;;;;;;;68.28;15.07;;;;;;;26.64;64.98;100191.50;4960970;29;20039;-79
2023/06/26 08:35:18;;;;;;;32.47;10.10;;;;;;;26.67;64.22;100180.00;4961006;29;20043;-87
2023/06/26 08:37:44;;;;;;;48.20;12.18;;;;;;;26.88;63.05;100181.34;4955798;29;20031;-88
2023/06/26 08:40:10;;;;;;;52.45;10.60;;;;;;;26.96;62.27;100192.84;4951670;29;20031;-85
2023/06/26 08:42:35;;;;;;;28.92;9.20;;;;;;;27.06;62.15;100195.00;4950219;29;20462;-85
2023/06/26 08:45:01;;;;;;;25.35;9.90;;;;;;;27.01;63.37;100197.63;4949894;29;20027;-82
2023/06/26 08:47:27;;;;;;;16.58;8.25;;;;;;;26.97;61.41;100188.19;4963485;28;20054;-87
2023/06/26 08:50:13;;;;;;;29.42;9.23;;;;;;;27.08;61.24;100187.31;4971126;28;20113;-77
2023/06/26 08:53:16;;;;;;;27.85;8.02;;;;;;;27.28;60.03;100197.94;4969121;28;20089;-79
2023/06/26 08:55:43;;;;;;;37.67;9.27;;;;;;;27.35;60.03;100184.84;4855750;29;20048;-80
2023/06/26 08:58:09;;;;;;;40.58;9.63;;;;;;;27.61;59.50;100200.88;4871413;29;20137;-80
2023/06/26 09:00:35;;;;;;;24.77;8.48;;;;;;;27.52;59.37;100191.31;4871420;29;20526;-80
2023/06/26 09:03:03;;;;;;;25.77;7.60;;;;;;;27.65;59.23;100188.22;4871821;29;20029;-79
2023/06/26 09:05:28;;;;;;;77.75;16.23;;;;;;;27.86;58.64;100184.75;4855505;29;20057;-79
2023/06/26 09:07:55;;;;;;;16.48;8.57;;;;;;;28.00;56.38;100199.97;4871693;29;20033;-80
2023/06/26 09:10:21;;;;;;;11.20;7.68;;;;;;;27.95;56.29;100188.78;4871436;29;20036;-79
2023/06/26 09:12:50;;;;;;;14.20;7.63;;;;;;;27.91;55.89;100197.84;4871267;29;20053;-78
2023/06/26 09:15:19;;;;;;;25.17;8.65;;;;;;;27.91;56.93;100195.09;4871172;29;20450;-82
2023/06/26 09:17:44;;;;;;;25.77;8.95;;;;;;;27.93;56.25;100196.50;4871388;29;20071;-80
2023/06/26 09:20:14;;;;;;;28.58;10.05;;;;;;;28.07;56.38;100197.09;4871469;29;20077;-78
2023/06/26 09:22:41;;;;;;;20.55;8.60;;;;;;;28.22;56.59;100193.75;4872798;29;20045;-80
2023/06/26 09:25:07;;;;;;;24.80;9.55;;;;;;;28.26;56.21;100195.75;4871796;29;20108;-82
2023/06/26 09:27:34;;;;;;;10.57;7.07;;;;;;;28.29;56.10;100186.09;4871596;29;20033;-79
2023/06/26 09:30:02;;;;;;;29.27;9.35;;;;;;;28.36;56.00;100195.06;4873446;29;20111;-80
2023/06/26 09:32:27;;;;;;;11.80;7.75;;;;;;;28.36;55.44;100206.13;4945699;28;20039;-81
2023/06/26 09:34:55;;;;;;;18.52;9.15;;;;;;;28.45;55.53;100199.09;4954759;28;20113;-79
2023/06/26 09:37:21;;;;;;;20.48;10.05;;;;;;;28.54;54.46;100203.13;4972338;28;20035;-78
2023/06/26 09:39:47;;;;;;;12.20;7.10;;;;;;;28.66;54.34;100192.81;4973205;28;20034;-79
2023/06/26 09:42:16;;;;;;;17.27;8.57;;;;;;;28.91;54.56;100190.44;4973210;28;21036;-79
2023/06/26 09:44:45;;;;;;;22.65;7.38;;;;;;;29.12;53.87;100203.47;4973526;28;20033;-78
2023/06/26 09:47:11;;;;;;;25.02;7.53;;;;;;;29.08;53.80;100188.44;4972471;28;20038;-79
2023/06/26 09:49:36;;;;;;;16.88;7.10;;;;;;;29.04;52.28;100192.84;4973056;28;20058;-79
2023/06/26 09:52:02;;;;;;;9.43;6.55;;;;;;;29.07;52.30;100188.72;4972970;28;20684;-79
2023/06/26 09:54:30;;;;;;;21.95;8.43;;;;;;;29.21;53.16;100186.41;4973040;28;20114;-79
2023/06/26 09:57:06;;;;;;;13.25;6.45;;;;;;;29.17;51.70;100173.06;4972844;28;20026;-80
2023/06/26 09:59:33;;;;;;;10.13;5.90;;;;;;;29.22;51.66;100182.53;4955409;28;20439;-79
2023/06/26 10:01:59;;;;;;;37.60;7.03;;;;;;;29.32;51.22;100191.88;4955701;28;20953;-79
2023/06/26 10:04:25;;;;;;;12.35;5.40;;;;;;;29.36;50.04;100190.22;4973483;28;20110;-79
2023/06/26 10:06:52;;;;;;;13.43;6.82;;;;;;;29.26;50.27;100190.13;4972812;28;20105;-79
2023/06/26 10:09:19;;;;;;;42.42;10.15;;;;;;;29.29;50.07;100192.38;4972795;28;20027;-80
2023/06/26 10:12:07;;;;;;;23.88;7.18;;;;;;;29.33;49.88;100179.66;4972879;28;20026;-80
2023/06/26 10:14:35;;;;;;;14.32;6.13;;;;;;;29.38;50.38;100181.69;4972960;28;20086;-79
2023/06/26 10:17:04;;;;;;;14.95;6.38;;;;;;;29.38;49.79;100190.84;4973188;28;20078;-80
2023/06/26 10:19:31;;;;;;;11.07;5.85;;;;;;;29.31;49.38;100183.78;4973555;28;20027;-79
2023/06/26 10:21:58;;;;;;;11.32;6.45;;;;;;;29.44;49.73;100189.78;4973278;28;20027;-79
2023/06/26 10:24:26;;;;;;;41.60;8.02;;;;;;;29.39;49.20;100180.56;4973571;28;20053;-79
2023/06/26 10:27:02;;;;;;;17.80;6.35;;;;;;;29.20;49.53;100173.66;4975873;28;20038;-77
2023/06/26 10:29:29;;;;;;;14.00;6.47;;;;;;;29.12;49.86;100175.78;4974318;28;20035;-79
2023/06/26 10:31:58;;;;;;;16.90;5.95;;;;;;;29.26;49.11;100173.50;4975099;28;20019;-80
2023/06/26 10:34:25;;;;;;;26.85;7.10;;;;;;;29.28;49.54;100162.16;4991324;28;20076;-76
2023/06/26 10:37:06;;;;;;;19.50;7.22;;;;;;;29.35;49.07;100171.09;4990608;28;20312;-78
2023/06/26 10:39:54;;;;;;;18.00;6.50;;;;;;;29.34;48.93;100177.72;4986981;28;20140;-78
2023/06/26 10:42:33;;;;;;;26.48;7.07;;;;;;;29.34;48.78;100155.56;4973351;28;20422;-79
2023/06/26 10:45:10;;;;;;;24.05;9.15;;;;;;;29.48;48.27;100156.88;4932604;28;20042;-78
2023/06/26 10:47:36;;;;;;;15.95;6.75;;;;;;;29.48;47.95;100163.22;4976141;28;20039;-78
2023/06/26 10:50:24;;;;;;;29.00;11.77;;;;;;;29.45;47.34;100154.59;4973579;28;20113;-78
2023/06/26 10:53:09;;;;;;;29.40;8.55;;;;;;;29.53;47.09;100156.91;4972465;28;20027;-79
2023/06/26 10:55:36;;;;;;;32.38;7.32;;;;;;;29.47;46.34;100156.03;4972162;28;20030;-79
2023/06/26 10:58:02;;;;;;;12.48;5.57;;;;;;;29.36;46.45;100150.59;4971657;28;20083;-80
2023/06/26 11:00:28;;;;;;;21.42;6.78;;;;;;;29.45;46.71;100152.66;4972534;28;20041;-79
2023/06/26 11:02:54;;;;;;;13.52;5.20;;;;;;;29.47;46.06;100144.09;4969670;28;20408;-79
2023/06/26 11:05:27;;;;;;;11.57;4.63;;;;;;;29.52;45.91;100150.53;4959054;28;20031;-79
2023/06/26 11:08:08;;;;;;;15.00;5.28;;;;;;;29.62;46.11;100150.66;4966157;28;20035;-78
2023/06/26 11:10:54;;;;;;;8.80;4.60;;;;;;;29.70;46.45;100138.22;4970678;28;20064;-77
2023/06/26 11:13:20;;;;;;;28.30;6.35;;;;;;;29.98;46.31;100138.00;4971629;28;20466;-78
2023/06/26 11:15:50;;;;;;;16.40;4.88;;;;;;;30.13;45.49;100138.13;4972170;28;20106;-80
2023/06/26 11:18:16;;;;;;;7.80;4.03;;;;;;;30.13;44.11;100143.66;4971566;28;20543;-86
2023/06/26 11:20:41;;;;;;;7.28;4.75;;;;;;;30.08;44.35;100127.00;4974824;28;20073;-83
2023/06/26 11:23:11;;;;;;;23.90;4.88;;;;;;;30.34;44.49;100136.34;4985561;28;20084;-88
2023/06/26 11:25:37;;;;;;;28.50;6.20;;;;;;;30.34;44.26;100141.03;4992698;28;20156;-85
2023/06/26 11:28:04;;;;;;;7.72;5.07;;;;;;;30.28;44.79;100133.78;4976989;28;20027;-84
2023/06/26 11:30:30;;;;;;;27.80;4.82;;;;;;;30.53;44.69;100128.47;4971338;28;20030;-83
2023/06/26 11:33:26;;;;;;;9.60;4.75;;;;;;;30.45;43.57;100142.84;4969808;28;20054;-84
2023/06/26 11:35:51;;;;;;;7.03;4.35;;;;;;;30.22;43.71;100114.34;4911498;29;20710;-86
2023/06/26 11:38:17;;;;;;;12.13;4.63;;;;;;;30.26;43.81;100117.41;4910956;29;20048;-85
2023/06/26 11:40:42;;;;;;;62.17;12.45;;;;;;;30.45;44.00;100118.72;4911185;29;20048;-84
2023/06/26 11:43:07;;;;;;;10.57;5.07;;;;;;;30.46;42.83;100127.84;4911153;29;20032;-84
2023/06/26 11:45:53;;;;;;;35.72;7.82;;;;;;;30.58;42.31;100118.22;4912534;29;20044;-84
2023/06/26 11:48:18;;;;;;;25.77;7.22;;;;;;;30.70;41.69;100123.59;4911325;29;20463;-88